18分钟前
罗盘
风向 的 风向 360° Corpus Christi International Airport 13/31
风: 4 千吨, 2 beaufort
0 500 1.500 3.000 5.000 8.000 10.000
SCT 0 ft
OVC 25.000 ft
METAR KCRP 301232Z 36004KT 1/4SM R13/1800V2400FT FG SCT000 OVC250 08/08 A3013

METAR定义 | 嵌入

24小时趋势

航班类别VFRLIFR
温度22 °C6 °C
风速8 千吨0 千吨
能见度16 公里0 米

更多历史数据

下载我们的安卓应用程序

从你的主屏幕上轻松地访问你的航空天气。
只需一次付费,您就可以获得无广告的体验。

您会帮助我们保持Metar-Taf.com正常运行吗?
您的贡献有助于网站的进一步开发并支付费用。

没有更多广告

您是捐款5美元还是更多?然后,我们将永远不会再向您展示广告,这是我们永恒的感谢!
捐赠前先登录

METAR Corpus Christi International Airport

Corpus Christi International Airport是Corpus Christi,美国中的大型机场。 机场有{a,plural,=1{一条跑道} other{#跑道}}: 13/31 和 17/35

该报告是针对2021年11月30日 06:32, 当地时间上的Corpus Christi International Airport所做的。

机场观察

风来自北 (360°)方向,速度为4 千吨。

可见度为402 米。 跑道13的能见度为在1.800 米和2.400 米之间变化。

有疏云,零星散落的云朵 和 乌云密布在25.000 ft的高度。 破损或更高的上限为25.000 ft。

当前天气为多雾路段。 温度为8 °C,阵风为5 °C。 露点为8 °C,相对湿度为100%。 海平面上的气压为1020 压力 (QNH)。

白天

今天,太阳从07:03升起,在17:34降落。 这适用于Corpus Christi International Airport,世界夏令时可能有所不同。 当地时间与世界标准时间之间的时差为-6 小时。 当前,没有夏令时有效。

公司介绍

我们没有关于这个机场的公司信息。

体会

到Vliegles.nl去找飞行课程,跳伞和其他飞行体验。 浏览页面,了解Corpus Christi International Airport附近所有可用的活动。 你也可以使用搜索功能来寻找你所在地附近的特定飞行课程、跳伞或其他飞行体验。

您是否要在网站上Corpus Christi International Airport飞行的天气? 阅读更多   自由!